Time;durP1;ratioP1;P1;durP2;ratioP2;P2;SDS_P1;SDS_P2;PMS_P1;PMS_P2;Temp;Humidity;BMP_temperature;BMP_pressure;BME280_temperature;BME280_humidity;BME280_pressure;Samples;Min_cycle;Max_cycle;Signal;HPM_P1;HPM_P2
2021/05/22 00:01:17;;;;;;;13.85;2.28;;;;;;;-143.98;100.00;68091.63;6244125;23;20063;-83
2021/05/22 00:03:47;;;;;;;8.20;1.98;;;;;;;-143.98;100.00;68091.63;6220796;23;20038;-83
2021/05/22 00:06:23;;;;;;;8.60;1.90;;;;;;;-143.98;100.00;68091.63;6243249;23;20039;-83
2021/05/22 00:08:50;;;;;;;6.40;2.00;;;;;;;-143.98;100.00;68091.63;6220993;23;20032;-83
2021/05/22 00:11:20;;;;;;;7.85;1.67;;;;;;;-143.98;100.00;68091.63;6232123;22;20193;-83
2021/05/22 00:13:50;;;;;;;8.27;1.60;;;;;;;-143.98;100.00;68091.63;6239664;22;20027;-83
2021/05/22 00:16:21;;;;;;;7.38;1.92;;;;;;;-143.98;100.00;68091.63;6252911;22;20351;-83
2021/05/22 00:18:48;;;;;;;11.77;3.15;;;;;;;-143.98;100.00;68091.63;6244158;23;20185;-83
2021/05/22 00:21:15;;;;;;;10.25;2.05;;;;;;;-143.98;100.00;68091.63;6246230;23;20112;-83
2021/05/22 00:23:42;;;;;;;13.63;2.80;;;;;;;-143.98;100.00;68091.63;6218624;23;20028;-83
2021/05/22 00:26:12;;;;;;;14.88;3.60;;;;;;;-143.98;100.00;68091.63;6242805;23;20028;-83
2021/05/22 00:28:38;;;;;;;16.65;2.40;;;;;;;-143.98;100.00;68091.63;6245258;23;20028;-83
2021/05/22 00:31:06;;;;;;;19.23;2.83;;;;;;;-143.98;100.00;68091.63;6218043;23;20035;-82
2021/05/22 00:33:32;;;;;;;17.65;3.67;;;;;;;-143.98;100.00;68091.63;6221828;23;20016;-82
2021/05/22 00:35:59;;;;;;;26.27;4.72;;;;;;;-143.98;100.00;68091.63;6245138;23;20050;-82
2021/05/22 00:38:26;;;;;;;30.10;6.18;;;;;;;-143.98;100.00;68091.63;6244045;23;20050;-82
2021/05/22 00:40:54;;;;;;;31.73;7.15;;;;;;;-143.98;100.00;68091.63;6245581;23;20038;-82
2021/05/22 00:43:21;;;;;;;31.42;6.32;;;;;;;-143.98;100.00;68091.63;6219174;23;20050;-82
2021/05/22 00:45:48;;;;;;;41.20;7.63;;;;;;;-143.98;100.00;68091.63;6219862;23;20034;-82
2021/05/22 00:48:15;;;;;;;38.28;7.22;;;;;;;-143.98;100.00;68091.63;6245305;23;20042;-83
2021/05/22 00:50:42;;;;;;;32.47;5.47;;;;;;;-143.98;100.00;68091.63;6220971;23;20024;-83
2021/05/22 00:53:10;;;;;;;21.23;4.13;;;;;;;-143.98;100.00;68091.63;6219655;23;20102;-83
2021/05/22 00:55:38;;;;;;;17.75;3.05;;;;;;;-143.98;100.00;68091.63;6220157;23;20073;-83
2021/05/22 00:58:05;;;;;;;15.73;2.80;;;;;;;-143.98;100.00;68091.63;6220485;23;20074;-83
2021/05/22 01:00:42;;;;;;;15.52;2.78;;;;;;;-143.98;100.00;68091.63;6221378;23;20032;-83
2021/05/22 01:03:15;;;;;;;5.78;2.03;;;;;;;-143.98;100.00;68091.63;6220353;23;20028;-83
2021/05/22 01:05:43;;;;;;;11.27;2.00;;;;;;;-143.98;100.00;68091.63;6245525;23;20063;-83
2021/05/22 01:08:23;;;;;;;10.45;1.92;;;;;;;-143.98;100.00;68091.63;6219303;23;20038;-83
2021/05/22 01:11:02;;;;;;;7.03;1.73;;;;;;;-143.98;100.00;68091.63;6243492;23;20059;-83
2021/05/22 01:13:34;;;;;;;9.50;1.75;;;;;;;-143.98;100.00;68091.63;6244887;23;20024;-83
2021/05/22 01:16:01;;;;;;;13.18;2.03;;;;;;;-143.98;100.00;68091.63;6219902;23;20044;-83
2021/05/22 01:18:30;;;;;;;7.60;1.88;;;;;;;-143.98;100.00;68091.63;6244725;23;20032;-83
2021/05/22 01:20:59;;;;;;;13.52;2.25;;;;;;;-143.98;100.00;68091.63;6219972;23;20047;-83
2021/05/22 01:23:36;;;;;;;10.02;2.33;;;;;;;-143.98;100.00;68091.63;6244058;23;20246;-83
2021/05/22 01:26:04;;;;;;;11.20;2.13;;;;;;;-143.98;100.00;68091.63;6219848;23;20103;-83
2021/05/22 01:28:33;;;;;;;7.35;1.75;;;;;;;-143.98;100.00;68091.63;6243399;23;20024;-83
2021/05/22 01:31:01;;;;;;;17.08;2.25;;;;;;;-143.98;100.00;68091.63;6243339;23;20028;-83
2021/05/22 01:33:29;;;;;;;13.63;2.35;;;;;;;-143.98;100.00;68091.63;6220164;23;20326;-83
2021/05/22 01:35:56;;;;;;;8.25;2.75;;;;;;;-143.98;100.00;68091.63;6243718;23;20123;-83
2021/05/22 01:38:23;;;;;;;8.52;1.58;;;;;;;-143.98;100.00;68091.63;6245051;23;20028;-82
2021/05/22 01:40:50;;;;;;;8.80;2.45;;;;;;;-143.98;100.00;68091.63;6222098;23;20039;-83
2021/05/22 01:43:20;;;;;;;12.52;2.60;;;;;;;-143.98;100.00;68091.63;6249762;22;20279;-83
2021/05/22 01:45:49;;;;;;;8.73;2.80;;;;;;;-143.98;100.00;68091.63;6221007;23;20168;-83
2021/05/22 01:48:27;;;;;;;13.75;4.25;;;;;;;-143.98;100.00;68091.63;6246679;23;20115;-83
2021/05/22 01:51:04;;;;;;;12.35;4.00;;;;;;;-143.98;100.00;68091.63;6220425;23;20084;-83
2021/05/22 01:53:32;;;;;;;16.70;4.18;;;;;;;-143.98;100.00;68091.63;6245154;23;20093;-83
2021/05/22 01:55:59;;;;;;;10.48;3.47;;;;;;;-143.98;100.00;68091.63;6244788;23;20032;-82
2021/05/22 01:58:26;;;;;;;9.40;3.30;;;;;;;-143.98;100.00;68091.63;6247836;23;20039;-83
2021/05/22 02:00:53;;;;;;;10.63;2.92;;;;;;;-143.98;100.00;68091.63;6221753;23;20047;-83
2021/05/22 02:03:27;;;;;;;9.18;3.55;;;;;;;-143.98;100.00;68091.63;6247433;23;20052;-83
2021/05/22 02:05:55;;;;;;;8.75;2.97;;;;;;;-143.98;100.00;68091.63;6219838;23;20024;-83
2021/05/22 02:08:23;;;;;;;13.48;4.75;;;;;;;-143.98;100.00;68091.63;6222214;23;20031;-83
2021/05/22 02:10:50;;;;;;;13.10;4.30;;;;;;;-143.98;100.00;68091.63;6246103;23;20493;-84
2021/05/22 02:13:18;;;;;;;16.67;5.25;;;;;;;-143.98;100.00;68091.63;6222288;23;20096;-83
2021/05/22 02:15:59;;;;;;;19.95;6.38;;;;;;;-143.98;100.00;68091.63;6223058;23;20478;-84
2021/05/22 02:18:28;;;;;;;16.80;6.43;;;;;;;-143.98;100.00;68091.63;6248073;22;20035;-84
2021/05/22 02:20:56;;;;;;;18.77;6.00;;;;;;;-143.98;100.00;68091.63;6221703;23;20028;-86
2021/05/22 02:23:25;;;;;;;18.75;4.75;;;;;;;-143.98;100.00;68091.63;6249759;22;20138;-84
2021/05/22 02:25:56;;;;;;;14.90;4.90;;;;;;;-143.98;100.00;68091.63;6223800;23;20038;-84
2021/05/22 02:28:42;;;;;;;22.83;5.35;;;;;;;-143.98;100.00;68091.63;6224089;23;20084;-84
2021/05/22 02:31:12;;;;;;;12.40;3.75;;;;;;;-143.98;100.00;68091.63;6250533;23;20031;-84
2021/05/22 02:33:48;;;;;;;21.00;4.35;;;;;;;-143.98;100.00;68091.63;6249477;23;20485;-84
2021/05/22 02:36:16;;;;;;;15.68;5.65;;;;;;;-143.98;100.00;68091.63;6224830;23;20024;-83
2021/05/22 02:38:50;;;;;;;22.63;6.60;;;;;;;-143.98;100.00;68091.63;6232396;23;20032;-85
2021/05/22 02:41:17;;;;;;;24.88;7.22;;;;;;;-143.98;100.00;68091.63;6258843;23;20052;-84
2021/05/22 02:43:48;;;;;;;25.35;6.60;;;;;;;-143.98;100.00;68091.63;6229754;23;20107;-85
2021/05/22 02:46:17;;;;;;;18.60;4.38;;;;;;;-143.98;100.00;68091.63;6222728;23;20038;-85
2021/05/22 02:48:44;;;;;;;13.88;4.10;;;;;;;-143.98;100.00;68091.63;6249771;23;20063;-85
2021/05/22 02:51:13;;;;;;;12.77;3.55;;;;;;;-143.98;100.00;68091.63;6250039;23;20051;-86
2021/05/22 02:53:47;;;;;;;;;;;;;;;-143.98;100.00;68091.63;6267280;22;20064;-86
2021/05/22 02:56:14;;;;;;;13.27;4.22;;;;;;;-143.98;100.00;68091.63;6267185;22;19903;-84
2021/05/22 02:58:45;;;;;;;12.13;2.90;;;;;;;-143.98;100.00;68091.63;6229674;23;20028;-86
2021/05/22 03:01:19;;;;;;;12.93;3.38;;;;;;;-143.98;100.00;68091.63;6223780;23;20060;-86
2021/05/22 03:03:49;;;;;;;21.98;5.88;;;;;;;-143.98;100.00;68091.63;6250478;23;20047;-86
2021/05/22 03:06:19;;;;;;;19.90;5.68;;;;;;;-143.98;100.00;68091.63;6268788;22;20016;-85
2021/05/22 03:08:48;;;;;;;30.80;6.32;;;;;;;-143.98;100.00;68091.63;6257778;23;20028;-86
2021/05/22 03:11:17;;;;;;;24.92;4.35;;;;;;;-143.98;100.00;68091.63;6249192;23;20044;-85
2021/05/22 03:13:47;;;;;;;21.67;4.95;;;;;;;-143.98;100.00;68091.63;6248418;23;20449;-85
2021/05/22 03:16:17;;;;;;;23.02;4.70;;;;;;;-143.98;100.00;68091.63;6248263;23;20032;-85
2021/05/22 03:18:44;;;;;;;15.48;3.15;;;;;;;-143.98;100.00;68091.63;6224573;23;20025;-86
2021/05/22 03:21:13;;;;;;;23.67;4.28;;;;;;;-143.98;100.00;68091.63;6256838;23;20067;-85
2021/05/22 03:23:40;;;;;;;13.98;2.80;;;;;;;-143.98;100.00;68091.63;6253041;23;20036;-86
2021/05/22 03:26:07;;;;;;;15.73;3.08;;;;;;;-143.98;100.00;68091.63;6247538;23;20024;-85
2021/05/22 03:28:36;;;;;;;15.88;4.35;;;;;;;-143.98;100.00;68091.63;6248462;23;20024;-86
2021/05/22 03:31:11;;;;;;;13.25;2.78;;;;;;;-143.98;100.00;68091.63;6248261;23;20034;-85
2021/05/22 03:33:44;;;;;;;17.33;3.00;;;;;;;-143.98;100.00;68091.63;6247771;23;20047;-85
2021/05/22 03:36:16;;;;;;;10.07;2.00;;;;;;;-143.98;100.00;68091.63;6250036;23;20097;-85
2021/05/22 03:38:45;;;;;;;8.93;1.80;;;;;;;-143.98;100.00;68091.63;6248795;23;20031;-85
2021/05/22 03:41:13;;;;;;;8.48;2.83;;;;;;;-143.98;100.00;68091.63;6223852;23;20436;-85
2021/05/22 03:43:40;;;;;;;8.43;1.88;;;;;;;-143.98;100.00;68091.63;6250506;23;20039;-85
2021/05/22 03:46:10;;;;;;;11.70;2.17;;;;;;;-143.98;100.00;68091.63;6248338;23;20028;-85
2021/05/22 03:48:37;;;;;;;7.63;2.03;;;;;;;-143.98;100.00;68091.63;6224964;23;20031;-84
2021/05/22 03:51:13;;;;;;;10.38;2.10;;;;;;;-143.98;100.00;68091.63;6250045;23;20051;-84
2021/05/22 03:53:43;;;;;;;19.35;3.25;;;;;;;-143.98;100.00;68091.63;6224755;23;20211;-85
2021/05/22 03:56:10;;;;;;;18.65;3.35;;;;;;;-143.98;100.00;68091.63;6251034;22;20059;-86
2021/05/22 03:58:37;;;;;;;19.58;3.72;;;;;;;-143.98;100.00;68091.63;6224422;23;20307;-85
2021/05/22 04:01:07;;;;;;;18.05;4.28;;;;;;;-143.98;100.00;68091.63;6225435;23;20028;-85
2021/05/22 04:03:34;;;;;;;17.38;3.88;;;;;;;-143.98;100.00;68091.63;6247037;23;20055;-84
2021/05/22 04:06:08;;;;;;;21.50;3.45;;;;;;;-143.98;100.00;68091.63;6250446;23;20024;-84
2021/05/22 04:08:36;;;;;;;18.90;3.30;;;;;;;-143.98;100.00;68091.63;6249293;23;20078;-84
2021/05/22 04:11:04;;;;;;;21.33;4.25;;;;;;;-143.98;100.00;68091.63;6249000;23;20028;-85
2021/05/22 04:13:35;;;;;;;23.63;3.65;;;;;;;-143.98;100.00;68091.63;6224445;23;20070;-85
2021/05/22 04:16:07;;;;;;;10.13;1.92;;;;;;;-143.98;100.00;68091.63;6226032;23;20036;-84
2021/05/22 04:18:37;;;;;;;8.63;1.92;;;;;;;-143.98;100.00;68091.63;6224441;23;20044;-84
2021/05/22 04:21:08;;;;;;;8.75;1.42;;;;;;;-143.98;100.00;68091.63;6253847;23;20028;-84
2021/05/22 04:23:35;;;;;;;10.75;1.70;;;;;;;-143.98;100.00;68091.63;6225864;23;20032;-85
2021/05/22 04:26:02;;;;;;;7.47;1.75;;;;;;;-143.98;100.00;68091.63;6224867;23;20030;-85
2021/05/22 04:28:31;;;;;;;6.35;1.30;;;;;;;-143.98;100.00;68091.63;6225643;23;20035;-85
2021/05/22 04:30:58;;;;;;;4.10;1.65;;;;;;;-143.98;100.00;68091.63;6252044;23;20107;-85
2021/05/22 04:33:29;;;;;;;8.52;1.70;;;;;;;-143.98;100.00;68091.63;6224611;23;20023;-86
2021/05/22 04:35:59;;;;;;;9.32;1.60;;;;;;;-143.98;100.00;68091.63;6250792;23;20016;-86
2021/05/22 04:38:26;;;;;;;6.05;1.30;;;;;;;-143.98;100.00;68091.63;6224383;23;20108;-85
2021/05/22 04:40:56;;;;;;;7.65;1.75;;;;;;;-143.98;100.00;68091.63;6247586;23;20028;-86
2021/05/22 04:43:27;;;;;;;10.38;2.78;;;;;;;-143.98;100.00;68091.63;6247920;23;20413;-86
2021/05/22 04:45:55;;;;;;;6.63;1.48;;;;;;;-143.98;100.00;68091.63;6246822;23;20028;-86
2021/05/22 04:48:22;;;;;;;4.43;1.30;;;;;;;-143.98;100.00;68091.63;6248367;23;20302;-86
2021/05/22 04:50:49;;;;;;;10.77;1.38;;;;;;;-143.98;100.00;68091.63;6248314;23;20031;-85
2021/05/22 04:53:20;;;;;;;8.25;1.30;;;;;;;-143.98;100.00;68091.63;6221634;23;20046;-86
2021/05/22 04:55:54;;;;;;;6.72;1.25;;;;;;;-143.98;100.00;68091.63;6246934;23;20281;-85
2021/05/22 04:58:28;;;;;;;8.60;1.50;;;;;;;-143.98;100.00;68091.63;6222210;23;20187;-85
2021/05/22 05:00:56;;;;;;;6.32;1.83;;;;;;;-143.98;100.00;68091.63;6221452;23;20123;-85
2021/05/22 05:03:27;;;;;;;8.73;2.03;;;;;;;-143.98;100.00;68091.63;6243685;23;20035;-85
2021/05/22 05:05:54;;;;;;;6.45;1.23;;;;;;;-143.98;100.00;68091.63;6246056;23;20024;-85
2021/05/22 05:08:21;;;;;;;5.50;1.70;;;;;;;-143.98;100.00;68091.63;6246653;23;20027;-85
2021/05/22 05:10:49;;;;;;;8.05;1.40;;;;;;;-143.98;100.00;68091.63;6222748;23;20028;-85
2021/05/22 05:13:20;;;;;;;7.25;1.40;;;;;;;-143.98;100.00;68091.63;6248963;23;20028;-85
2021/05/22 05:15:48;;;;;;;5.25;1.10;;;;;;;-143.98;100.00;68091.63;6247344;23;20062;-86
2021/05/22 05:18:15;;;;;;;6.55;1.55;;;;;;;-143.98;100.00;68091.63;6224103;23;20259;-86
2021/05/22 05:20:42;;;;;;;7.35;1.38;;;;;;;-143.98;100.00;68091.63;6247661;23;20046;-85
2021/05/22 05:23:09;;;;;;;7.65;1.40;;;;;;;-143.98;100.00;68091.63;6248159;23;20032;-86
2021/05/22 05:25:36;;;;;;;6.80;1.00;;;;;;;-143.98;100.00;68091.63;6250025;23;20364;-86
2021/05/22 05:28:05;;;;;;;6.97;1.80;;;;;;;-143.98;100.00;68091.63;6252839;23;20034;-88
2021/05/22 05:30:34;;;;;;;5.70;1.20;;;;;;;-143.98;100.00;68091.63;6257138;23;20024;-88
2021/05/22 05:33:02;;;;;;;7.25;1.17;;;;;;;-143.98;100.00;68091.63;6251621;23;20035;-85
2021/05/22 05:35:29;;;;;;;5.60;1.00;;;;;;;-143.98;100.00;68091.63;6248207;23;20039;-84
2021/05/22 05:37:58;;;;;;;4.32;1.10;;;;;;;-143.98;100.00;68091.63;6226047;23;20031;-84
2021/05/22 05:40:25;;;;;;;9.77;1.38;;;;;;;-143.98;100.00;68091.63;6248540;23;20055;-85
2021/05/22 05:42:55;;;;;;;5.63;1.05;;;;;;;-143.98;100.00;68091.63;6249211;22;20028;-86
2021/05/22 05:45:22;;;;;;;7.18;1.35;;;;;;;-143.98;100.00;68091.63;6246414;23;20213;-87
2021/05/22 05:47:56;;;;;;;7.13;1.05;;;;;;;-143.98;100.00;68091.63;6246353;23;20390;-86
2021/05/22 05:50:25;;;;;;;4.57;1.20;;;;;;;-143.98;100.00;68091.63;6247458;23;20433;-88
2021/05/22 05:53:06;;;;;;;3.90;1.27;;;;;;;-143.98;100.00;68091.63;6227267;23;20024;-88
2021/05/22 05:55:47;;;;;;;8.10;1.13;;;;;;;-143.98;100.00;68091.63;6209155;23;20469;-86
2021/05/22 05:58:19;;;;;;;9.25;1.40;;;;;;;-143.98;100.00;68091.63;6246042;23;20012;-87
2021/05/22 06:00:47;;;;;;;7.95;1.70;;;;;;;-143.98;100.00;68091.63;6245336;23;20028;-85
2021/05/22 06:03:14;;;;;;;3.90;1.00;;;;;;;-143.98;100.00;68091.63;6220795;23;20040;-86
2021/05/22 06:05:43;;;;;;;5.20;1.23;;;;;;;-143.98;100.00;68091.63;6248969;23;20156;-87
2021/05/22 06:08:10;;;;;;;5.57;1.45;;;;;;;-143.98;100.00;68091.63;6223263;23;20383;-86
2021/05/22 06:10:36;;;;;;;7.53;1.13;;;;;;;-143.98;100.00;68091.63;6229821;23;20022;-86
2021/05/22 06:13:03;;;;;;;7.88;1.33;;;;;;;-143.98;100.00;68091.63;6263946;22;20193;-85
2021/05/22 06:15:33;;;;;;;11.60;1.42;;;;;;;-143.98;100.00;68091.63;6264109;22;20054;-85
2021/05/22 06:18:00;;;;;;;9.35;1.35;;;;;;;-143.98;100.00;68091.63;6252255;23;20044;-85
2021/05/22 06:20:28;;;;;;;7.20;1.27;;;;;;;-143.98;100.00;68091.63;6224781;23;20170;-85
2021/05/22 06:22:55;;;;;;;4.78;1.10;;;;;;;-143.98;100.00;68091.63;6259068;23;20088;-86
2021/05/22 06:25:22;;;;;;;12.65;1.70;;;;;;;-143.98;100.00;68091.63;6262538;23;20048;-86
2021/05/22 06:27:49;;;;;;;6.97;1.90;;;;;;;-143.98;100.00;68091.63;6237954;22;20023;-86
2021/05/22 06:30:16;;;;;;;3.83;1.35;;;;;;;-143.98;100.00;68091.63;6262678;22;20159;-85
2021/05/22 06:32:43;;;;;;;6.90;1.30;;;;;;;-143.98;100.00;68091.63;6258522;22;20034;-87
2021/05/22 06:35:11;;;;;;;12.85;1.52;;;;;;;-143.98;100.00;68091.63;6248417;23;20352;-86
2021/05/22 06:37:40;;;;;;;7.40;1.27;;;;;;;-143.98;100.00;68091.63;6248238;23;20083;-84
2021/05/22 06:40:08;;;;;;;5.13;1.17;;;;;;;-143.98;100.00;68091.63;6245476;23;20023;-86
2021/05/22 06:42:36;;;;;;;2.72;1.17;;;;;;;-143.98;100.00;68091.63;6221215;23;20051;-86
2021/05/22 06:45:13;;;;;;;7.82;1.10;;;;;;;-143.98;100.00;68091.63;6250070;23;20417;-86
2021/05/22 06:47:49;;;;;;;6.90;1.40;;;;;;;-143.98;100.00;68091.63;6249119;23;20035;-86
2021/05/22 06:50:16;;;;;;;4.43;1.20;;;;;;;-143.98;100.00;68091.63;6247718;23;20028;-86
2021/05/22 06:52:46;;;;;;;9.82;1.80;;;;;;;-143.98;100.00;68091.63;6220104;23;20783;-86
2021/05/22 06:55:13;;;;;;;3.72;1.13;;;;;;;-143.98;100.00;68091.63;6245340;23;20087;-87
2021/05/22 06:57:40;;;;;;;3.80;1.10;;;;;;;-143.98;100.00;68091.63;6220832;23;20507;-85
2021/05/22 07:00:30;;;;;;;5.72;1.48;;;;;;;-143.98;100.00;68091.63;6249869;22;20076;-87
2021/05/22 07:03:02;;;;;;;7.00;1.20;;;;;;;-143.98;100.00;68091.63;6221918;23;20030;-84
2021/05/22 07:05:52;;;;;;;5.45;1.45;;;;;;;-143.98;100.00;68091.63;6245996;23;20032;-83
2021/05/22 07:08:19;;;;;;;3.97;1.25;;;;;;;-143.98;100.00;68091.63;6247606;22;20012;-84
2021/05/22 07:10:51;;;;;;;9.50;1.70;;;;;;;-143.98;100.00;68091.63;6244849;23;20020;-85
2021/05/22 07:13:17;;;;;;;4.97;1.05;;;;;;;-143.98;100.00;68091.63;6220576;23;20103;-85
2021/05/22 07:15:44;;;;;;;3.75;1.60;;;;;;;-143.98;100.00;68091.63;6219181;23;20290;-84
2021/05/22 07:18:11;;;;;;;9.77;2.08;;;;;;;-143.98;100.00;68091.63;6244554;23;20027;-83
2021/05/22 07:20:38;;;;;;;5.80;1.52;;;;;;;-143.98;100.00;68091.63;6216943;23;20086;-83
2021/05/22 07:23:07;;;;;;;5.30;1.40;;;;;;;-143.98;100.00;68091.63;6242397;23;20097;-83
2021/05/22 07:25:34;;;;;;;10.32;2.17;;;;;;;-143.98;100.00;68091.63;6220300;23;20112;-83
2021/05/22 07:28:06;;;;;;;8.00;1.70;;;;;;;-143.98;100.00;68091.63;6245185;23;20039;-83
2021/05/22 07:30:33;;;;;;;9.80;1.98;;;;;;;-143.98;100.00;68091.63;6219523;23;20024;-82
2021/05/22 07:33:01;;;;;;;9.15;2.45;;;;;;;-143.98;100.00;68091.63;6243524;23;20047;-83
2021/05/22 07:35:27;;;;;;;11.63;1.95;;;;;;;-143.98;100.00;68091.63;6216424;23;20063;-82
2021/05/22 07:37:54;;;;;;;10.05;2.22;;;;;;;-143.98;100.00;68091.63;6241722;23;20115;-82
2021/05/22 07:40:21;;;;;;;8.68;2.45;;;;;;;-143.98;100.00;68091.63;6241301;23;20039;-82
2021/05/22 07:43:13;;;;;;;4.00;1.88;;;;;;;-143.98;100.00;68091.63;6241832;23;20398;-82
2021/05/22 07:45:40;;;;;;;6.55;2.35;;;;;;;-143.98;100.00;68091.63;6241603;23;20126;-83
2021/05/22 07:48:07;;;;;;;9.20;2.05;;;;;;;-143.98;100.00;68091.63;6224238;23;20038;-83
2021/05/22 07:50:35;;;;;;;12.73;2.58;;;;;;;-143.98;100.00;68091.63;6244881;23;20291;-83
2021/05/22 07:53:02;;;;;;;9.70;2.53;;;;;;;-143.98;100.00;68091.63;6215541;23;20527;-83
2021/05/22 07:55:29;;;;;;;13.73;2.53;;;;;;;-143.98;100.00;68091.63;6239772;23;20105;-82
2021/05/22 07:57:56;;;;;;;11.63;2.58;;;;;;;-143.98;100.00;68091.63;6214564;23;20024;-81
2021/05/22 08:00:23;;;;;;;9.27;2.45;;;;;;;-143.98;100.00;68091.63;6215263;23;20028;-81
2021/05/22 08:02:54;;;;;;;7.32;3.05;;;;;;;-143.98;100.00;68091.63;6238390;23;20051;-81
2021/05/22 08:05:21;;;;;;;9.13;2.58;;;;;;;-143.98;100.00;68091.63;6238841;23;20032;-81
2021/05/22 08:07:47;;;;;;;9.00;2.97;;;;;;;-143.98;100.00;68091.63;6238873;23;20028;-80
2021/05/22 08:10:16;;;;;;;7.65;3.00;;;;;;;-143.98;100.00;68091.63;6237584;23;20208;-81
2021/05/22 08:12:46;;;;;;;11.52;3.10;;;;;;;-143.98;100.00;68091.63;6238689;23;20024;-81
2021/05/22 08:15:16;;;;;;;6.57;3.13;;;;;;;-143.98;100.00;68091.63;6242564;22;20306;-81
2021/05/22 08:17:43;;;;;;;8.95;2.85;;;;;;;-143.98;100.00;68091.63;6240428;23;20028;-82
2021/05/22 08:20:14;;;;;;;10.73;3.00;;;;;;;-143.98;100.00;68091.63;6240452;23;20071;-82
2021/05/22 08:22:45;;;;;;;8.52;2.90;;;;;;;-143.98;100.00;68091.63;6242465;22;20440;-82
2021/05/22 08:25:13;;;;;;;12.75;3.60;;;;;;;-143.98;100.00;68091.63;6242983;23;20028;-82
2021/05/22 08:27:41;;;;;;;10.40;3.28;;;;;;;-143.98;100.00;68091.63;6239935;23;20227;-82
2021/05/22 08:30:09;;;;;;;8.02;3.30;;;;;;;-143.98;100.00;68091.63;6240095;23;20031;-81
2021/05/22 08:32:40;;;;;;;6.75;3.40;;;;;;;-143.98;100.00;68091.63;6212897;23;20115;-81
2021/05/22 08:35:08;;;;;;;8.75;3.50;;;;;;;-143.98;100.00;68091.63;6240534;23;20421;-81
2021/05/22 08:37:37;;;;;;;5.93;3.25;;;;;;;-143.98;100.00;68091.63;6242244;23;20039;-81
2021/05/22 08:40:11;;;;;;;8.52;3.38;;;;;;;-143.98;100.00;68091.63;6215921;23;20032;-81
2021/05/22 08:42:38;;;;;;;12.82;4.20;;;;;;;-143.98;100.00;68091.63;6239438;23;20028;-81
2021/05/22 08:45:11;;;;;;;15.75;3.90;;;;;;;-143.98;100.00;68091.63;6238604;23;20330;-82
2021/05/22 08:47:39;;;;;;;7.68;2.80;;;;;;;-143.98;100.00;68091.63;6241214;23;20318;-82
2021/05/22 08:50:09;;;;;;;7.72;3.47;;;;;;;-143.98;100.00;68091.63;6215311;23;20016;-82
2021/05/22 08:52:36;;;;;;;5.80;3.03;;;;;;;-143.98;100.00;68091.63;6240894;23;20350;-82
2021/05/22 08:55:05;;;;;;;6.90;3.10;;;;;;;-143.98;100.00;68091.63;6215405;23;20086;-82
2021/05/22 08:57:35;;;;;;;7.93;3.03;;;;;;;-143.98;100.00;68091.63;6243285;23;20082;-84
2021/05/22 09:00:08;;;;;;;9.95;3.50;;;;;;;-143.98;100.00;68091.63;6221252;23;20236;-83
2021/05/22 09:02:36;;;;;;;14.77;3.13;;;;;;;-143.98;100.00;68091.63;6214735;23;20109;-83
2021/05/22 09:05:28;;;;;;;9.52;3.50;;;;;;;-143.98;100.00;68091.63;6243784;22;20034;-84
2021/05/22 09:08:00;;;;;;;9.63;3.25;;;;;;;-143.98;100.00;68091.63;6241585;23;20028;-85
2021/05/22 09:10:35;;;;;;;13.23;3.10;;;;;;;-143.98;100.00;68091.63;6241065;23;20111;-83
2021/05/22 09:13:08;;;;;;;6.28;2.90;;;;;;;-143.98;100.00;68091.63;6218967;23;20311;-83
2021/05/22 09:15:51;;;;;;;7.00;2.92;;;;;;;-143.98;100.00;68091.63;6215496;23;20121;-83
2021/05/22 09:18:38;;;;;;;6.22;2.65;;;;;;;-143.98;100.00;68091.63;6218125;23;20028;-85
2021/05/22 09:21:15;;;;;;;9.27;2.78;;;;;;;-143.98;100.00;68091.63;6218625;23;20072;-83
2021/05/22 09:23:47;;;;;;;6.93;2.53;;;;;;;-143.98;100.00;68091.63;6243349;23;20047;-84
2021/05/22 09:26:15;;;;;;;8.43;3.28;;;;;;;-143.98;100.00;68091.63;6252029;22;20024;-83
2021/05/22 09:28:50;;;;;;;5.47;2.78;;;;;;;-143.98;100.00;68091.63;6259034;22;20036;-85
2021/05/22 09:31:27;;;;;;;6.00;2.70;;;;;;;-143.98;100.00;68091.63;6230273;23;20034;-83
2021/05/22 09:34:04;;;;;;;10.50;3.20;;;;;;;-143.98;100.00;68091.63;6253331;22;20055;-85
2021/05/22 09:36:43;;;;;;;6.65;3.13;;;;;;;-143.98;100.00;68091.63;6260904;22;20023;-85
2021/05/22 09:39:17;;;;;;;8.90;3.00;;;;;;;-143.98;100.00;68091.63;6235215;22;20046;-85
2021/05/22 09:41:44;;;;;;;15.13;3.10;;;;;;;-143.98;100.00;68091.63;6228679;22;20062;-86
2021/05/22 09:44:16;;;;;;;7.43;2.50;;;;;;;-143.98;100.00;68091.63;6244873;23;20056;-85
2021/05/22 09:46:43;;;;;;;7.78;2.97;;;;;;;-143.98;100.00;68091.63;6220761;23;20034;-86
2021/05/22 09:49:21;;;;;;;8.45;2.75;;;;;;;-143.98;100.00;68091.63;6245573;23;20052;-85
2021/05/22 09:52:10;;;;;;;5.78;2.60;;;;;;;-143.98;100.00;68091.63;6243761;23;20024;-85
2021/05/22 09:54:38;;;;;;;;;;;;;;;-143.98;100.00;68091.63;6220771;23;20034;-86
2021/05/22 09:57:08;;;;;;;7.20;2.85;;;;;;;-143.98;100.00;68091.63;6220521;23;19915;-85
2021/05/22 09:59:35;;;;;;;9.65;2.70;;;;;;;-143.98;100.00;68091.63;6245063;23;20095;-85
2021/05/22 10:02:05;;;;;;;7.75;2.78;;;;;;;-143.98;100.00;68091.63;6218961;23;20051;-86
2021/05/22 10:04:35;;;;;;;3.00;2.50;;;;;;;-143.98;100.00;68091.63;6243500;23;20127;-86
2021/05/22 10:07:05;;;;;;;8.05;2.47;;;;;;;-143.98;100.00;68091.63;6245834;23;20024;-85
2021/05/22 10:09:39;;;;;;;4.13;2.35;;;;;;;-143.98;100.00;68091.63;6243519;22;20046;-85
2021/05/22 10:12:17;;;;;;;7.93;2.67;;;;;;;-143.98;100.00;68091.63;6245087;22;20028;-86
2021/05/22 10:14:44;;;;;;;8.95;2.50;;;;;;;-143.98;100.00;68091.63;6243847;23;20217;-86
2021/05/22 10:17:13;;;;;;;7.78;2.65;;;;;;;-143.98;100.00;68091.63;6216041;23;20032;-86
2021/05/22 10:19:40;;;;;;;6.18;2.65;;;;;;;-143.98;100.00;68091.63;6240981;23;20023;-86
2021/05/22 10:22:08;;;;;;;6.82;2.20;;;;;;;-143.98;100.00;68091.63;6216002;23;20032;-86
2021/05/22 10:24:36;;;;;;;10.55;2.08;;;;;;;-143.98;100.00;68091.63;6215567;23;20107;-86
2021/05/22 10:27:09;;;;;;;4.93;2.03;;;;;;;-143.98;100.00;68091.63;6237961;23;20032;-85
2021/05/22 10:29:38;;;;;;;4.43;1.70;;;;;;;-143.98;100.00;68091.63;6239774;23;20043;-86
2021/05/22 10:32:05;;;;;;;6.13;2.00;;;;;;;-143.98;100.00;68091.63;6214730;23;20102;-86
2021/05/22 10:34:36;;;;;;;8.23;2.67;;;;;;;-143.98;100.00;68091.63;6240863;23;20170;-87
2021/05/22 10:37:04;;;;;;;8.00;2.30;;;;;;;-143.98;100.00;68091.63;6216506;23;20051;-86
2021/05/22 10:39:45;;;;;;;4.80;1.60;;;;;;;-143.98;100.00;68091.63;6239634;23;20043;-86
2021/05/22 10:42:19;;;;;;;4.38;1.40;;;;;;;-143.98;100.00;68091.63;6215402;23;20064;-86
2021/05/22 10:44:47;;;;;;;7.25;2.30;;;;;;;-143.98;100.00;68091.63;6242053;22;20028;-86
2021/05/22 10:47:16;;;;;;;9.00;1.95;;;;;;;-143.98;100.00;68091.63;6216055;23;20127;-87
2021/05/22 10:49:56;;;;;;;5.10;1.70;;;;;;;-143.98;100.00;68091.63;6216773;23;20035;-86
2021/05/22 10:52:24;;;;;;;5.55;2.00;;;;;;;-143.98;100.00;68091.63;6241354;23;20039;-86
2021/05/22 10:55:12;;;;;;;6.03;1.35;;;;;;;-143.98;100.00;68091.63;6240212;23;20030;-86
2021/05/22 10:57:46;;;;;;;6.05;1.90;;;;;;;-143.98;100.00;68091.63;6244822;22;20054;-86
2021/05/22 11:00:23;;;;;;;8.07;1.92;;;;;;;-143.98;100.00;68091.63;6245321;23;20024;-86
2021/05/22 11:02:58;;;;;;;9.15;2.00;;;;;;;-143.98;100.00;68091.63;6214897;23;20191;-86
2021/05/22 11:05:28;;;;;;;5.35;1.90;;;;;;;-143.98;100.00;68091.63;6215005;23;20264;-86
2021/05/22 11:08:09;;;;;;;6.53;1.80;;;;;;;-143.98;100.00;68091.63;6238901;23;20055;-85
2021/05/22 11:10:48;;;;;;;9.98;2.00;;;;;;;-143.98;100.00;68091.63;6241474;23;20032;-86
2021/05/22 11:13:22;;;;;;;7.18;1.77;;;;;;;-143.98;100.00;68091.63;6239141;23;20035;-86
2021/05/22 11:15:55;;;;;;;5.60;1.67;;;;;;;-143.98;100.00;68091.63;6245041;23;20166;-86
2021/05/22 11:18:24;;;;;;;17.88;1.70;;;;;;;-143.98;100.00;68091.63;6242267;23;20276;-86
2021/05/22 11:21:10;;;;;;;4.07;1.70;;;;;;;-143.98;100.00;68091.63;6244070;23;20028;-86